Terminal Aerodrome Forecast
Issued by NWS

Home | Current Version | Previous Version | Text Only | Print | Product List | Glossary On
Versions: 1 2 3 4 5 6 7 8 9 10 11 12 13 14 15 16 17 18 19
000
FTUS43 KIWX 211200 AAA
TAFSBN
TAF AMD
KSBN 211243Z 2113/2212 20007KT P6SM SCT030 BKN050
      TEMPO 2114/2116 4SM TSRA BR BKN030 BKN080CB
     FM211600 20010KT P6SM SCT060 BKN100
     FM220000 21007KT P6SM VCTS BKN060CB
     FM220600 23007KT 4SM TSRA OVC035CB=

USA.gov is the U.S. government's official web portal to all federal, state and local government web resources and services.